createdAt,value
2022-10-05T01:15:54.827Z,7.76
2022-10-05T03:40:25.090Z,7.59
2022-10-05T03:46:20.853Z,7.60
2022-10-05T05:40:13.181Z,8.01
2022-10-05T06:56:49.723Z,8.29
2022-10-05T11:27:16.036Z,9.68
2022-10-05T11:30:04.522Z,9.81
2022-10-05T11:36:09.460Z,10.25
2022-10-05T11:38:55.432Z,10.32
2022-10-05T11:41:50.984Z,10.17
2022-10-05T11:44:51.941Z,10.00
2022-10-05T11:47:28.830Z,9.65
2022-10-05T11:50:15.142Z,9.69
2022-10-05T11:52:54.302Z,9.45
2022-10-05T11:55:28.085Z,9.58
2022-10-05T11:57:57.049Z,9.48
2022-10-05T12:00:40.826Z,9.37
2022-10-05T12:03:11.617Z,9.35
2022-10-05T12:05:58.827Z,9.12
2022-10-05T12:11:43.054Z,8.99
2022-10-05T12:14:34.233Z,9.02
2022-10-05T12:17:33.367Z,8.89
2022-10-05T12:20:11.844Z,8.77
2022-10-05T12:22:43.251Z,8.79
2022-10-05T12:25:31.072Z,8.98
2022-10-05T12:28:06.004Z,8.93
2022-10-05T12:31:16.571Z,8.94
2022-10-05T12:33:55.450Z,8.92
2022-10-05T12:37:04.205Z,9.02
2022-10-05T12:39:44.223Z,8.96
2022-10-05T12:42:51.460Z,8.94
2022-10-05T12:45:27.994Z,9.05
2022-10-05T12:48:19.218Z,9.16
2022-10-05T12:50:53.726Z,9.34
2022-10-05T12:53:49.440Z,9.73
2022-10-05T12:56:29.575Z,9.74
2022-10-05T12:59:17.795Z,9.67
2022-10-05T13:04:48.949Z,9.30
2022-10-05T13:07:57.328Z,9.17
2022-10-05T13:10:41.708Z,9.48
2022-10-05T13:13:39.775Z,9.35
2022-10-05T13:16:20.422Z,9.27
2022-10-05T13:18:58.650Z,9.14
2022-10-05T13:21:52.786Z,9.02
2022-10-05T13:27:35.914Z,9.04
2022-10-05T13:30:16.841Z,8.87
2022-10-05T13:32:50.431Z,8.91
2022-10-05T13:35:46.997Z,8.82
2022-10-05T13:38:47.771Z,8.80
2022-10-05T13:41:45.882Z,8.86
2022-10-05T13:44:22.746Z,8.84
2022-10-05T13:46:59.416Z,8.85
2022-10-05T16:54:48.560Z,7.68
2022-10-05T16:57:36.544Z,7.68
2022-10-05T17:00:15.642Z,7.63
2022-10-05T17:21:17.466Z,7.50
2022-10-05T17:24:04.590Z,7.41
2022-10-05T17:35:27.263Z,7.55
2022-10-05T17:50:20.746Z,7.35
2022-10-05T17:53:39.514Z,7.56
2022-10-05T22:50:16.815Z,7.03
